sensor_id;sensor_type;location;lat;lon;timestamp;P1;durP1;ratioP1;P2;durP2;ratioP2
2408;SDS011;8463;48.094;7.970;2022-12-07T00:01:05;11.57;;;9.83;;
2408;SDS011;8463;48.094;7.970;2022-12-07T00:03:32;15.80;;;10.20;;
2408;SDS011;8463;48.094;7.970;2022-12-07T00:05:59;12.80;;;9.73;;
2408;SDS011;8463;48.094;7.970;2022-12-07T00:08:25;12.73;;;9.47;;
2408;SDS011;8463;48.094;7.970;2022-12-07T00:10:51;13.80;;;9.50;;
2408;SDS011;8463;48.094;7.970;2022-12-07T00:13:16;12.67;;;9.60;;
2408;SDS011;8463;48.094;7.970;2022-12-07T00:15:42;14.37;;;10.23;;
2408;SDS011;8463;48.094;7.970;2022-12-07T00:18:08;12.03;;;9.10;;
2408;SDS011;8463;48.094;7.970;2022-12-07T00:20:33;13.70;;;10.83;;
2408;SDS011;8463;48.094;7.970;2022-12-07T00:22:59;13.80;;;10.20;;
2408;SDS011;8463;48.094;7.970;2022-12-07T00:25:26;14.30;;;10.40;;
2408;SDS011;8463;48.094;7.970;2022-12-07T00:27:53;13.40;;;9.90;;
2408;SDS011;8463;48.094;7.970;2022-12-07T00:30:21;13.80;;;9.90;;
2408;SDS011;8463;48.094;7.970;2022-12-07T00:32:47;15.10;;;9.70;;
2408;SDS011;8463;48.094;7.970;2022-12-07T00:35:13;13.93;;;9.60;;
2408;SDS011;8463;48.094;7.970;2022-12-07T00:37:39;14.20;;;8.30;;
2408;SDS011;8463;48.094;7.970;2022-12-07T00:40:05;16.00;;;10.53;;
2408;SDS011;8463;48.094;7.970;2022-12-07T00:42:31;10.07;;;8.57;;
2408;SDS011;8463;48.094;7.970;2022-12-07T00:44:57;9.93;;;8.07;;
2408;SDS011;8463;48.094;7.970;2022-12-07T00:47:22;18.03;;;9.87;;
2408;SDS011;8463;48.094;7.970;2022-12-07T00:49:48;11.97;;;8.80;;
2408;SDS011;8463;48.094;7.970;2022-12-07T00:52:13;9.30;;;7.70;;
2408;SDS011;8463;48.094;7.970;2022-12-07T00:54:41;14.47;;;8.63;;
2408;SDS011;8463;48.094;7.970;2022-12-07T00:57:09;9.00;;;8.00;;
2408;SDS011;8463;48.094;7.970;2022-12-07T00:59:34;14.70;;;9.17;;
2408;SDS011;8463;48.094;7.970;2022-12-07T01:02:00;13.50;;;8.50;;
2408;SDS011;8463;48.094;7.970;2022-12-07T01:04:26;12.47;;;9.40;;
2408;SDS011;8463;48.094;7.970;2022-12-07T01:06:54;11.50;;;7.77;;
2408;SDS011;8463;48.094;7.970;2022-12-07T01:09:20;11.97;;;8.03;;
2408;SDS011;8463;48.094;7.970;2022-12-07T01:11:45;11.97;;;8.73;;
2408;SDS011;8463;48.094;7.970;2022-12-07T01:14:11;9.80;;;7.73;;
2408;SDS011;8463;48.094;7.970;2022-12-07T01:16:38;9.80;;;8.60;;
2408;SDS011;8463;48.094;7.970;2022-12-07T01:19:04;15.53;;;10.30;;
2408;SDS011;8463;48.094;7.970;2022-12-07T01:21:33;11.67;;;8.37;;
2408;SDS011;8463;48.094;7.970;2022-12-07T01:24:01;12.10;;;9.03;;
2408;SDS011;8463;48.094;7.970;2022-12-07T01:26:27;13.43;;;9.23;;
2408;SDS011;8463;48.094;7.970;2022-12-07T01:28:55;11.73;;;8.77;;
2408;SDS011;8463;48.094;7.970;2022-12-07T01:31:24;13.20;;;9.27;;
2408;SDS011;8463;48.094;7.970;2022-12-07T01:33:51;12.67;;;10.53;;
2408;SDS011;8463;48.094;7.970;2022-12-07T01:38:51;15.73;;;10.27;;
2408;SDS011;8463;48.094;7.970;2022-12-07T01:41:21;11.73;;;9.40;;
2408;SDS011;8463;48.094;7.970;2022-12-07T01:46:48;11.23;;;9.03;;
2408;SDS011;8463;48.094;7.970;2022-12-07T01:49:17;11.97;;;8.93;;
2408;SDS011;8463;48.094;7.970;2022-12-07T01:51:50;11.40;;;7.97;;
2408;SDS011;8463;48.094;7.970;2022-12-07T01:54:19;12.03;;;9.00;;
2408;SDS011;8463;48.094;7.970;2022-12-07T01:56:50;9.60;;;8.37;;
2408;SDS011;8463;48.094;7.970;2022-12-07T01:59:18;14.60;;;9.73;;
2408;SDS011;8463;48.094;7.970;2022-12-07T02:01:47;12.00;;;8.73;;
2408;SDS011;8463;48.094;7.970;2022-12-07T02:04:12;12.47;;;8.70;;
2408;SDS011;8463;48.094;7.970;2022-12-07T02:06:42;14.90;;;9.70;;
2408;SDS011;8463;48.094;7.970;2022-12-07T02:09:09;12.50;;;10.10;;
2408;SDS011;8463;48.094;7.970;2022-12-07T02:11:35;13.07;;;11.00;;
2408;SDS011;8463;48.094;7.970;2022-12-07T02:14:00;14.50;;;10.43;;
2408;SDS011;8463;48.094;7.970;2022-12-07T02:21:51;12.13;;;9.67;;
2408;SDS011;8463;48.094;7.970;2022-12-07T02:29:33;13.97;;;10.37;;
2408;SDS011;8463;48.094;7.970;2022-12-07T02:40:07;15.33;;;11.53;;
2408;SDS011;8463;48.094;7.970;2022-12-07T02:45:31;18.90;;;12.07;;
2408;SDS011;8463;48.094;7.970;2022-12-07T02:47:59;19.90;;;12.00;;
2408;SDS011;8463;48.094;7.970;2022-12-07T02:50:27;20.40;;;13.63;;
2408;SDS011;8463;48.094;7.970;2022-12-07T02:52:53;20.07;;;13.60;;
2408;SDS011;8463;48.094;7.970;2022-12-07T02:55:19;21.53;;;16.87;;
2408;SDS011;8463;48.094;7.970;2022-12-07T03:00:38;18.63;;;12.60;;
2408;SDS011;8463;48.094;7.970;2022-12-07T03:03:16;21.57;;;13.17;;
2408;SDS011;8463;48.094;7.970;2022-12-07T03:11:43;15.57;;;12.27;;
2408;SDS011;8463;48.094;7.970;2022-12-07T03:19:29;18.90;;;12.50;;
2408;SDS011;8463;48.094;7.970;2022-12-07T03:21:59;17.30;;;11.60;;
2408;SDS011;8463;48.094;7.970;2022-12-07T03:24:39;14.67;;;10.23;;
2408;SDS011;8463;48.094;7.970;2022-12-07T03:27:13;17.80;;;12.43;;
2408;SDS011;8463;48.094;7.970;2022-12-07T03:30:05;17.03;;;12.53;;
2408;SDS011;8463;48.094;7.970;2022-12-07T03:35:21;19.60;;;13.50;;
2408;SDS011;8463;48.094;7.970;2022-12-07T03:40:40;14.80;;;11.97;;
2408;SDS011;8463;48.094;7.970;2022-12-07T03:43:19;16.23;;;11.00;;
2408;SDS011;8463;48.094;7.970;2022-12-07T03:45:58;14.70;;;10.00;;
2408;SDS011;8463;48.094;7.970;2022-12-07T03:48:42;13.50;;;8.93;;
2408;SDS011;8463;48.094;7.970;2022-12-07T03:51:24;11.70;;;9.20;;
2408;SDS011;8463;48.094;7.970;2022-12-07T03:54:01;15.73;;;9.57;;
2408;SDS011;8463;48.094;7.970;2022-12-07T03:56:36;12.67;;;9.17;;
2408;SDS011;8463;48.094;7.970;2022-12-07T03:59:02;10.10;;;7.93;;
2408;SDS011;8463;48.094;7.970;2022-12-07T04:01:28;8.77;;;7.50;;
2408;SDS011;8463;48.094;7.970;2022-12-07T04:03:54;11.33;;;9.07;;
2408;SDS011;8463;48.094;7.970;2022-12-07T04:06:19;13.20;;;9.23;;
2408;SDS011;8463;48.094;7.970;2022-12-07T04:08:45;11.67;;;9.07;;
2408;SDS011;8463;48.094;7.970;2022-12-07T04:11:10;10.73;;;8.77;;
2408;SDS011;8463;48.094;7.970;2022-12-07T04:13:36;14.80;;;9.80;;
2408;SDS011;8463;48.094;7.970;2022-12-07T04:16:21;15.20;;;9.53;;
2408;SDS011;8463;48.094;7.970;2022-12-07T04:18:47;10.47;;;8.50;;
2408;SDS011;8463;48.094;7.970;2022-12-07T04:21:13;13.53;;;10.40;;
2408;SDS011;8463;48.094;7.970;2022-12-07T04:23:38;16.43;;;9.60;;
2408;SDS011;8463;48.094;7.970;2022-12-07T04:26:04;10.80;;;8.67;;
2408;SDS011;8463;48.094;7.970;2022-12-07T04:28:29;13.60;;;10.77;;
2408;SDS011;8463;48.094;7.970;2022-12-07T04:30:55;15.03;;;9.70;;
2408;SDS011;8463;48.094;7.970;2022-12-07T04:33:21;13.40;;;9.77;;
2408;SDS011;8463;48.094;7.970;2022-12-07T04:35:46;13.10;;;10.00;;
2408;SDS011;8463;48.094;7.970;2022-12-07T04:38:12;14.10;;;9.60;;
2408;SDS011;8463;48.094;7.970;2022-12-07T04:40:39;12.43;;;8.87;;
2408;SDS011;8463;48.094;7.970;2022-12-07T04:43:07;9.53;;;7.80;;
2408;SDS011;8463;48.094;7.970;2022-12-07T04:45:33;15.53;;;10.50;;
2408;SDS011;8463;48.094;7.970;2022-12-07T04:47:59;11.00;;;8.90;;
2408;SDS011;8463;48.094;7.970;2022-12-07T04:50:24;11.83;;;8.03;;
2408;SDS011;8463;48.094;7.970;2022-12-07T04:52:50;10.60;;;8.03;;
2408;SDS011;8463;48.094;7.970;2022-12-07T04:55:18;11.10;;;8.13;;
2408;SDS011;8463;48.094;7.970;2022-12-07T04:57:43;9.00;;;7.20;;
2408;SDS011;8463;48.094;7.970;2022-12-07T05:00:09;9.00;;;8.10;;
2408;SDS011;8463;48.094;7.970;2022-12-07T05:02:35;11.37;;;7.80;;
2408;SDS011;8463;48.094;7.970;2022-12-07T05:05:03;12.00;;;7.27;;
2408;SDS011;8463;48.094;7.970;2022-12-07T05:07:28;8.67;;;7.47;;
2408;SDS011;8463;48.094;7.970;2022-12-07T05:09:54;10.70;;;7.90;;
2408;SDS011;8463;48.094;7.970;2022-12-07T05:12:19;10.00;;;8.80;;
2408;SDS011;8463;48.094;7.970;2022-12-07T05:14:45;12.43;;;8.70;;
2408;SDS011;8463;48.094;7.970;2022-12-07T05:17:11;10.23;;;9.03;;
2408;SDS011;8463;48.094;7.970;2022-12-07T05:19:37;13.83;;;9.13;;
2408;SDS011;8463;48.094;7.970;2022-12-07T05:22:02;11.50;;;8.93;;
2408;SDS011;8463;48.094;7.970;2022-12-07T05:24:28;11.53;;;10.20;;
2408;SDS011;8463;48.094;7.970;2022-12-07T05:26:53;12.50;;;11.20;;
2408;SDS011;8463;48.094;7.970;2022-12-07T05:29:19;14.83;;;10.63;;
2408;SDS011;8463;48.094;7.970;2022-12-07T05:31:44;17.87;;;11.33;;
2408;SDS011;8463;48.094;7.970;2022-12-07T05:34:12;19.43;;;12.00;;
2408;SDS011;8463;48.094;7.970;2022-12-07T05:36:38;15.50;;;11.70;;
2408;SDS011;8463;48.094;7.970;2022-12-07T05:39:03;18.90;;;12.20;;
2408;SDS011;8463;48.094;7.970;2022-12-07T05:41:29;11.30;;;9.00;;
2408;SDS011;8463;48.094;7.970;2022-12-07T05:44:13;5.67;;;4.70;;
2408;SDS011;8463;48.094;7.970;2022-12-07T05:46:39;4.33;;;3.63;;
2408;SDS011;8463;48.094;7.970;2022-12-07T05:49:05;6.07;;;4.30;;
2408;SDS011;8463;48.094;7.970;2022-12-07T05:51:30;5.40;;;3.63;;
2408;SDS011;8463;48.094;7.970;2022-12-07T05:53:56;6.17;;;4.30;;
2408;SDS011;8463;48.094;7.970;2022-12-07T05:56:22;5.63;;;4.13;;
2408;SDS011;8463;48.094;7.970;2022-12-07T05:58:48;4.80;;;3.60;;
2408;SDS011;8463;48.094;7.970;2022-12-07T06:01:32;4.97;;;3.57;;
2408;SDS011;8463;48.094;7.970;2022-12-07T06:03:57;6.00;;;3.90;;
2408;SDS011;8463;48.094;7.970;2022-12-07T06:06:23;4.87;;;3.53;;
2408;SDS011;8463;48.094;7.970;2022-12-07T06:08:48;3.67;;;3.03;;
2408;SDS011;8463;48.094;7.970;2022-12-07T06:11:14;9.90;;;6.00;;
2408;SDS011;8463;48.094;7.970;2022-12-07T06:13:58;12.70;;;7.00;;
2408;SDS011;8463;48.094;7.970;2022-12-07T06:16:24;8.67;;;6.30;;
2408;SDS011;8463;48.094;7.970;2022-12-07T06:18:49;4.80;;;3.40;;
2408;SDS011;8463;48.094;7.970;2022-12-07T06:21:15;4.97;;;2.20;;
2408;SDS011;8463;48.094;7.970;2022-12-07T06:23:40;3.10;;;2.60;;
2408;SDS011;8463;48.094;7.970;2022-12-07T06:26:06;6.63;;;4.17;;
2408;SDS011;8463;48.094;7.970;2022-12-07T06:28:32;6.97;;;4.50;;
2408;SDS011;8463;48.094;7.970;2022-12-07T06:30:58;5.70;;;4.77;;
2408;SDS011;8463;48.094;7.970;2022-12-07T06:33:25;7.57;;;5.10;;
2408;SDS011;8463;48.094;7.970;2022-12-07T06:35:51;6.43;;;5.27;;
2408;SDS011;8463;48.094;7.970;2022-12-07T06:38:17;8.73;;;5.33;;
2408;SDS011;8463;48.094;7.970;2022-12-07T06:40:43;5.60;;;4.13;;
2408;SDS011;8463;48.094;7.970;2022-12-07T06:43:08;4.23;;;3.87;;
2408;SDS011;8463;48.094;7.970;2022-12-07T06:45:34;6.83;;;4.57;;
2408;SDS011;8463;48.094;7.970;2022-12-07T06:48:00;4.70;;;4.20;;
2408;SDS011;8463;48.094;7.970;2022-12-07T06:50:25;4.73;;;3.43;;
2408;SDS011;8463;48.094;7.970;2022-12-07T06:52:51;5.37;;;4.87;;
2408;SDS011;8463;48.094;7.970;2022-12-07T06:55:17;5.17;;;3.60;;
2408;SDS011;8463;48.094;7.970;2022-12-07T06:57:43;4.03;;;3.63;;
2408;SDS011;8463;48.094;7.970;2022-12-07T07:00:09;4.30;;;3.10;;
2408;SDS011;8463;48.094;7.970;2022-12-07T07:02:37;4.07;;;2.97;;
2408;SDS011;8463;48.094;7.970;2022-12-07T07:05:05;2.60;;;2.40;;
2408;SDS011;8463;48.094;7.970;2022-12-07T07:07:31;3.13;;;2.83;;
2408;SDS011;8463;48.094;7.970;2022-12-07T07:09:59;4.57;;;3.40;;
2408;SDS011;8463;48.094;7.970;2022-12-07T07:12:24;4.10;;;3.17;;
2408;SDS011;8463;48.094;7.970;2022-12-07T07:14:50;5.40;;;3.97;;
2408;SDS011;8463;48.094;7.970;2022-12-07T07:17:16;5.70;;;3.27;;
2408;SDS011;8463;48.094;7.970;2022-12-07T07:19:41;6.33;;;3.80;;
2408;SDS011;8463;48.094;7.970;2022-12-07T07:22:07;4.97;;;4.10;;
2408;SDS011;8463;48.094;7.970;2022-12-07T07:24:33;6.20;;;3.83;;
2408;SDS011;8463;48.094;7.970;2022-12-07T07:26:58;5.07;;;3.67;;
2408;SDS011;8463;48.094;7.970;2022-12-07T07:29:24;4.67;;;4.10;;
2408;SDS011;8463;48.094;7.970;2022-12-07T07:31:49;3.80;;;3.50;;
2408;SDS011;8463;48.094;7.970;2022-12-07T07:34:17;4.90;;;3.97;;
2408;SDS011;8463;48.094;7.970;2022-12-07T07:36:43;3.60;;;2.90;;
2408;SDS011;8463;48.094;7.970;2022-12-07T07:39:09;4.60;;;4.20;;
2408;SDS011;8463;48.094;7.970;2022-12-07T07:41:37;5.57;;;4.87;;
2408;SDS011;8463;48.094;7.970;2022-12-07T07:44:03;7.70;;;6.83;;
2408;SDS011;8463;48.094;7.970;2022-12-07T07:46:29;5.13;;;4.20;;
2408;SDS011;8463;48.094;7.970;2022-12-07T07:48:55;6.43;;;4.43;;
2408;SDS011;8463;48.094;7.970;2022-12-07T07:51:20;5.20;;;4.10;;
2408;SDS011;8463;48.094;7.970;2022-12-07T07:53:46;6.30;;;4.57;;
2408;SDS011;8463;48.094;7.970;2022-12-07T07:56:11;5.70;;;4.17;;
2408;SDS011;8463;48.094;7.970;2022-12-07T07:58:37;4.10;;;3.70;;
2408;SDS011;8463;48.094;7.970;2022-12-07T08:01:04;3.83;;;2.80;;
2408;SDS011;8463;48.094;7.970;2022-12-07T08:03:31;3.53;;;3.00;;
2408;SDS011;8463;48.094;7.970;2022-12-07T08:05:57;3.83;;;3.00;;
2408;SDS011;8463;48.094;7.970;2022-12-07T08:08:22;4.77;;;3.50;;
2408;SDS011;8463;48.094;7.970;2022-12-07T08:10:48;5.40;;;4.90;;
2408;SDS011;8463;48.094;7.970;2022-12-07T08:13:15;3.73;;;2.90;;
2408;SDS011;8463;48.094;7.970;2022-12-07T08:15:45;4.53;;;2.40;;
2408;SDS011;8463;48.094;7.970;2022-12-07T08:18:13;6.10;;;3.07;;
2408;SDS011;8463;48.094;7.970;2022-12-07T08:20:39;4.70;;;2.80;;
2408;SDS011;8463;48.094;7.970;2022-12-07T08:23:06;5.30;;;3.57;;
2408;SDS011;8463;48.094;7.970;2022-12-07T08:25:33;3.67;;;2.80;;
2408;SDS011;8463;48.094;7.970;2022-12-07T08:27:59;6.80;;;4.10;;
2408;SDS011;8463;48.094;7.970;2022-12-07T08:30:25;5.90;;;4.40;;
2408;SDS011;8463;48.094;7.970;2022-12-07T08:32:51;5.80;;;4.00;;
2408;SDS011;8463;48.094;7.970;2022-12-07T08:35:17;5.40;;;4.50;;
2408;SDS011;8463;48.094;7.970;2022-12-07T08:37:43;5.73;;;4.43;;
2408;SDS011;8463;48.094;7.970;2022-12-07T08:40:09;6.07;;;4.70;;
2408;SDS011;8463;48.094;7.970;2022-12-07T08:42:39;5.93;;;4.83;;
2408;SDS011;8463;48.094;7.970;2022-12-07T08:45:06;5.10;;;4.40;;
2408;SDS011;8463;48.094;7.970;2022-12-07T08:47:34;5.60;;;4.50;;
2408;SDS011;8463;48.094;7.970;2022-12-07T08:50:15;7.93;;;5.10;;
2408;SDS011;8463;48.094;7.970;2022-12-07T08:52:42;5.93;;;4.20;;
2408;SDS011;8463;48.094;7.970;2022-12-07T08:55:11;5.97;;;5.37;;
2408;SDS011;8463;48.094;7.970;2022-12-07T08:57:38;6.27;;;4.70;;
2408;SDS011;8463;48.094;7.970;2022-12-07T09:00:05;5.80;;;5.33;;
2408;SDS011;8463;48.094;7.970;2022-12-07T09:02:32;6.83;;;4.33;;
2408;SDS011;8463;48.094;7.970;2022-12-07T09:04:57;7.07;;;4.00;;
2408;SDS011;8463;48.094;7.970;2022-12-07T09:07:23;4.60;;;3.80;;
2408;SDS011;8463;48.094;7.970;2022-12-07T09:09:50;5.60;;;3.57;;
2408;SDS011;8463;48.094;7.970;2022-12-07T09:12:15;4.40;;;3.43;;
2408;SDS011;8463;48.094;7.970;2022-12-07T09:14:41;4.17;;;3.77;;
2408;SDS011;8463;48.094;7.970;2022-12-07T09:17:09;4.10;;;3.30;;
2408;SDS011;8463;48.094;7.970;2022-12-07T09:19:36;3.50;;;3.10;;
2408;SDS011;8463;48.094;7.970;2022-12-07T09:22:04;4.03;;;3.27;;
2408;SDS011;8463;48.094;7.970;2022-12-07T09:24:30;3.90;;;3.10;;
2408;SDS011;8463;48.094;7.970;2022-12-07T09:26:57;5.25;;;4.43;;
2408;SDS011;8463;48.094;7.970;2022-12-07T09:29:22;4.57;;;3.23;;
2408;SDS011;8463;48.094;7.970;2022-12-07T09:31:48;3.77;;;3.47;;
2408;SDS011;8463;48.094;7.970;2022-12-07T09:34:14;3.07;;;2.77;;
2408;SDS011;8463;48.094;7.970;2022-12-07T09:36:39;5.00;;;3.63;;
2408;SDS011;8463;48.094;7.970;2022-12-07T09:39:05;4.20;;;3.60;;
2408;SDS011;8463;48.094;7.970;2022-12-07T09:41:31;4.60;;;2.87;;
2408;SDS011;8463;48.094;7.970;2022-12-07T09:44:05;5.27;;;3.93;;
2408;SDS011;8463;48.094;7.970;2022-12-07T09:46:36;4.37;;;3.37;;
2408;SDS011;8463;48.094;7.970;2022-12-07T09:49:04;4.37;;;3.73;;
2408;SDS011;8463;48.094;7.970;2022-12-07T09:51:30;4.90;;;3.50;;
2408;SDS011;8463;48.094;7.970;2022-12-07T09:53:57;5.47;;;3.77;;
2408;SDS011;8463;48.094;7.970;2022-12-07T09:56:24;3.67;;;2.97;;
2408;SDS011;8463;48.094;7.970;2022-12-07T09:58:51;3.47;;;3.13;;
2408;SDS011;8463;48.094;7.970;2022-12-07T10:01:24;4.50;;;3.50;;
2408;SDS011;8463;48.094;7.970;2022-12-07T10:03:53;3.80;;;3.30;;
2408;SDS011;8463;48.094;7.970;2022-12-07T10:06:23;3.33;;;3.03;;
2408;SDS011;8463;48.094;7.970;2022-12-07T10:08:49;4.40;;;3.43;;
2408;SDS011;8463;48.094;7.970;2022-12-07T10:11:15;3.77;;;3.20;;
2408;SDS011;8463;48.094;7.970;2022-12-07T10:18:49;3.67;;;2.97;;
2408;SDS011;8463;48.094;7.970;2022-12-07T10:21:18;3.40;;;3.10;;
2408;SDS011;8463;48.094;7.970;2022-12-07T10:24:04;6.00;;;4.27;;
2408;SDS011;8463;48.094;7.970;2022-12-07T10:29:30;3.30;;;2.80;;
2408;SDS011;8463;48.094;7.970;2022-12-07T10:32:06;3.83;;;3.20;;
2408;SDS011;8463;48.094;7.970;2022-12-07T10:34:50;3.50;;;2.80;;
2408;SDS011;8463;48.094;7.970;2022-12-07T10:37:18;4.17;;;3.70;;
2408;SDS011;8463;48.094;7.970;2022-12-07T10:39:52;9.27;;;6.17;;
2408;SDS011;8463;48.094;7.970;2022-12-07T10:44:49;5.50;;;4.67;;
2408;SDS011;8463;48.094;7.970;2022-12-07T11:09:34;2.20;;;2.00;;
2408;SDS011;8463;48.094;7.970;2022-12-07T11:18:10;2.30;;;2.10;;
2408;SDS011;8463;48.094;7.970;2022-12-07T11:20:26;1.90;;;1.70;;
2408;SDS011;8463;48.094;7.970;2022-12-07T11:38:28;2.33;;;2.13;;
2408;SDS011;8463;48.094;7.970;2022-12-07T11:41:12;2.93;;;2.47;;
2408;SDS011;8463;48.094;7.970;2022-12-07T11:43:42;2.70;;;2.50;;
2408;SDS011;8463;48.094;7.970;2022-12-07T11:52:27;3.07;;;2.80;;
2408;SDS011;8463;48.094;7.970;2022-12-07T11:55:21;6.93;;;4.60;;
2408;SDS011;8463;48.094;7.970;2022-12-07T11:57:56;3.87;;;2.90;;
2408;SDS011;8463;48.094;7.970;2022-12-07T12:00:28;4.67;;;3.90;;
2408;SDS011;8463;48.094;7.970;2022-12-07T12:02:57;3.57;;;3.23;;
2408;SDS011;8463;48.094;7.970;2022-12-07T12:05:29;3.03;;;2.73;;
2408;SDS011;8463;48.094;7.970;2022-12-07T12:22:19;4.10;;;3.30;;
2408;SDS011;8463;48.094;7.970;2022-12-07T12:24:45;3.70;;;3.40;;
2408;SDS011;8463;48.094;7.970;2022-12-07T12:27:26;3.60;;;3.30;;
2408;SDS011;8463;48.094;7.970;2022-12-07T12:29:56;3.43;;;3.13;;
2408;SDS011;8463;48.094;7.970;2022-12-07T12:32:31;3.50;;;2.97;;
2408;SDS011;8463;48.094;7.970;2022-12-07T12:38:47;3.60;;;2.70;;
2408;SDS011;8463;48.094;7.970;2022-12-07T12:40:58;5.00;;;3.20;;
2408;SDS011;8463;48.094;7.970;2022-12-07T12:46:36;5.30;;;4.73;;
2408;SDS011;8463;48.094;7.970;2022-12-07T12:51:50;4.93;;;3.50;;
2408;SDS011;8463;48.094;7.970;2022-12-07T12:54:27;3.40;;;2.10;;
2408;SDS011;8463;48.094;7.970;2022-12-07T13:13:02;4.97;;;2.50;;
2408;SDS011;8463;48.094;7.970;2022-12-07T13:15:32;3.80;;;3.00;;
2408;SDS011;8463;48.094;7.970;2022-12-07T13:18:04;4.30;;;3.90;;
2408;SDS011;8463;48.094;7.970;2022-12-07T13:20:50;3.60;;;2.80;;
2408;SDS011;8463;48.094;7.970;2022-12-07T13:23:35;2.90;;;2.60;;
2408;SDS011;8463;48.094;7.970;2022-12-07T13:34:35;6.10;;;4.73;;
2408;SDS011;8463;48.094;7.970;2022-12-07T13:39:50;3.50;;;3.20;;
2408;SDS011;8463;48.094;7.970;2022-12-07T13:42:27;3.70;;;2.53;;
2408;SDS011;8463;48.094;7.970;2022-12-07T13:44:57;4.57;;;3.97;;
2408;SDS011;8463;48.094;7.970;2022-12-07T13:49:54;3.70;;;2.80;;
2408;SDS011;8463;48.094;7.970;2022-12-07T13:52:22;4.10;;;3.50;;
2408;SDS011;8463;48.094;7.970;2022-12-07T13:54:59;7.03;;;4.83;;
2408;SDS011;8463;48.094;7.970;2022-12-07T13:57:25;6.63;;;5.93;;
2408;SDS011;8463;48.094;7.970;2022-12-07T13:59:53;5.70;;;4.60;;
2408;SDS011;8463;48.094;7.970;2022-12-07T14:02:24;5.70;;;4.27;;
2408;SDS011;8463;48.094;7.970;2022-12-07T14:05:05;7.37;;;4.87;;
2408;SDS011;8463;48.094;7.970;2022-12-07T14:12:50;7.50;;;5.13;;
2408;SDS011;8463;48.094;7.970;2022-12-07T14:15:20;5.70;;;4.67;;
2408;SDS011;8463;48.094;7.970;2022-12-07T14:17:51;5.60;;;4.90;;
2408;SDS011;8463;48.094;7.970;2022-12-07T14:23:24;5.57;;;4.77;;
2408;SDS011;8463;48.094;7.970;2022-12-07T14:25:52;7.40;;;5.83;;
2408;SDS011;8463;48.094;7.970;2022-12-07T14:28:28;9.10;;;6.00;;
2408;SDS011;8463;48.094;7.970;2022-12-07T14:30:58;7.67;;;5.23;;
2408;SDS011;8463;48.094;7.970;2022-12-07T14:33:25;17.13;;;10.97;;
2408;SDS011;8463;48.094;7.970;2022-12-07T14:35:52;11.67;;;7.00;;
2408;SDS011;8463;48.094;7.970;2022-12-07T14:38:22;13.90;;;10.80;;
2408;SDS011;8463;48.094;7.970;2022-12-07T14:40:49;11.10;;;8.00;;
2408;SDS011;8463;48.094;7.970;2022-12-07T14:43:16;13.27;;;9.93;;
2408;SDS011;8463;48.094;7.970;2022-12-07T14:45:45;11.30;;;5.97;;
2408;SDS011;8463;48.094;7.970;2022-12-07T14:48:12;8.47;;;5.73;;
2408;SDS011;8463;48.094;7.970;2022-12-07T14:50:44;9.87;;;7.07;;
2408;SDS011;8463;48.094;7.970;2022-12-07T14:53:15;11.90;;;6.10;;
2408;SDS011;8463;48.094;7.970;2022-12-07T14:55:42;7.23;;;5.00;;
2408;SDS011;8463;48.094;7.970;2022-12-07T14:58:14;6.13;;;5.37;;
2408;SDS011;8463;48.094;7.970;2022-12-07T15:00:40;9.63;;;5.40;;
2408;SDS011;8463;48.094;7.970;2022-12-07T15:03:06;10.00;;;5.50;;
2408;SDS011;8463;48.094;7.970;2022-12-07T15:05:32;7.73;;;4.97;;
2408;SDS011;8463;48.094;7.970;2022-12-07T15:07:59;11.00;;;6.00;;
2408;SDS011;8463;48.094;7.970;2022-12-07T15:10:25;9.07;;;5.50;;
2408;SDS011;8463;48.094;7.970;2022-12-07T15:13:00;6.30;;;4.67;;
2408;SDS011;8463;48.094;7.970;2022-12-07T15:15:46;8.03;;;5.93;;
2408;SDS011;8463;48.094;7.970;2022-12-07T15:18:13;8.73;;;5.67;;
2408;SDS011;8463;48.094;7.970;2022-12-07T15:20:38;5.60;;;4.20;;
2408;SDS011;8463;48.094;7.970;2022-12-07T15:23:04;5.83;;;4.17;;
2408;SDS011;8463;48.094;7.970;2022-12-07T15:25:30;6.17;;;4.60;;
2408;SDS011;8463;48.094;7.970;2022-12-07T15:27:56;6.63;;;4.60;;
2408;SDS011;8463;48.094;7.970;2022-12-07T15:30:21;8.80;;;5.20;;
2408;SDS011;8463;48.094;7.970;2022-12-07T15:32:50;13.00;;;9.47;;
2408;SDS011;8463;48.094;7.970;2022-12-07T15:35:17;6.00;;;4.67;;
2408;SDS011;8463;48.094;7.970;2022-12-07T15:37:43;5.43;;;4.93;;
2408;SDS011;8463;48.094;7.970;2022-12-07T15:40:09;8.10;;;4.50;;
2408;SDS011;8463;48.094;7.970;2022-12-07T15:42:35;5.07;;;4.17;;
2408;SDS011;8463;48.094;7.970;2022-12-07T15:45:01;5.30;;;4.03;;
2408;SDS011;8463;48.094;7.970;2022-12-07T15:47:35;9.67;;;6.33;;
2408;SDS011;8463;48.094;7.970;2022-12-07T15:50:06;7.63;;;5.80;;
2408;SDS011;8463;48.094;7.970;2022-12-07T15:52:34;8.57;;;5.60;;
2408;SDS011;8463;48.094;7.970;2022-12-07T15:55:00;10.00;;;5.90;;
2408;SDS011;8463;48.094;7.970;2022-12-07T15:57:27;7.87;;;5.63;;
2408;SDS011;8463;48.094;7.970;2022-12-07T15:59:53;6.77;;;5.03;;
2408;SDS011;8463;48.094;7.970;2022-12-07T16:02:19;7.73;;;5.57;;
2408;SDS011;8463;48.094;7.970;2022-12-07T16:04:47;4.83;;;3.73;;
2408;SDS011;8463;48.094;7.970;2022-12-07T16:07:13;4.57;;;3.80;;
2408;SDS011;8463;48.094;7.970;2022-12-07T16:09:40;4.03;;;3.50;;
2408;SDS011;8463;48.094;7.970;2022-12-07T16:12:10;3.70;;;3.40;;
2408;SDS011;8463;48.094;7.970;2022-12-07T16:14:36;4.50;;;3.87;;
2408;SDS011;8463;48.094;7.970;2022-12-07T16:17:03;8.00;;;4.10;;
2408;SDS011;8463;48.094;7.970;2022-12-07T16:19:29;5.47;;;4.03;;
2408;SDS011;8463;48.094;7.970;2022-12-07T16:21:55;5.80;;;4.80;;
2408;SDS011;8463;48.094;7.970;2022-12-07T16:24:21;5.40;;;4.73;;
2408;SDS011;8463;48.094;7.970;2022-12-07T16:26:47;8.97;;;5.80;;
2408;SDS011;8463;48.094;7.970;2022-12-07T16:29:13;8.13;;;5.50;;
2408;SDS011;8463;48.094;7.970;2022-12-07T16:31:39;6.80;;;5.80;;
2408;SDS011;8463;48.094;7.970;2022-12-07T16:34:05;7.87;;;4.90;;
2408;SDS011;8463;48.094;7.970;2022-12-07T16:36:31;5.67;;;4.47;;
2408;SDS011;8463;48.094;7.970;2022-12-07T16:39:01;6.30;;;4.10;;
2408;SDS011;8463;48.094;7.970;2022-12-07T16:41:27;8.80;;;5.13;;
2408;SDS011;8463;48.094;7.970;2022-12-07T16:43:53;8.73;;;6.50;;
2408;SDS011;8463;48.094;7.970;2022-12-07T16:46:19;11.33;;;7.53;;
2408;SDS011;8463;48.094;7.970;2022-12-07T16:48:44;10.27;;;7.10;;
2408;SDS011;8463;48.094;7.970;2022-12-07T16:51:11;11.50;;;7.60;;
2408;SDS011;8463;48.094;7.970;2022-12-07T16:53:39;9.67;;;6.50;;
2408;SDS011;8463;48.094;7.970;2022-12-07T16:56:11;10.30;;;5.93;;
2408;SDS011;8463;48.094;7.970;2022-12-07T16:58:37;7.70;;;5.77;;
2408;SDS011;8463;48.094;7.970;2022-12-07T17:01:13;10.50;;;7.40;;
2408;SDS011;8463;48.094;7.970;2022-12-07T17:03:40;7.90;;;5.57;;
2408;SDS011;8463;48.094;7.970;2022-12-07T17:08:39;9.57;;;4.80;;
2408;SDS011;8463;48.094;7.970;2022-12-07T17:13:48;5.00;;;3.90;;
2408;SDS011;8463;48.094;7.970;2022-12-07T17:16:32;8.40;;;6.30;;
2408;SDS011;8463;48.094;7.970;2022-12-07T17:18:59;8.00;;;5.33;;
2408;SDS011;8463;48.094;7.970;2022-12-07T17:21:28;6.40;;;5.17;;
2408;SDS011;8463;48.094;7.970;2022-12-07T17:23:54;4.83;;;3.70;;
2408;SDS011;8463;48.094;7.970;2022-12-07T17:26:21;5.20;;;4.30;;
2408;SDS011;8463;48.094;7.970;2022-12-07T17:28:48;8.50;;;5.20;;
2408;SDS011;8463;48.094;7.970;2022-12-07T17:31:14;5.17;;;3.93;;
2408;SDS011;8463;48.094;7.970;2022-12-07T17:33:41;5.60;;;4.60;;
2408;SDS011;8463;48.094;7.970;2022-12-07T17:36:23;6.60;;;5.60;;
2408;SDS011;8463;48.094;7.970;2022-12-07T17:38:50;6.57;;;4.80;;
2408;SDS011;8463;48.094;7.970;2022-12-07T17:41:20;7.17;;;5.27;;
2408;SDS011;8463;48.094;7.970;2022-12-07T17:44:11;7.97;;;5.13;;
2408;SDS011;8463;48.094;7.970;2022-12-07T17:46:40;7.40;;;5.13;;
2408;SDS011;8463;48.094;7.970;2022-12-07T17:49:06;6.37;;;5.27;;
2408;SDS011;8463;48.094;7.970;2022-12-07T17:51:32;8.30;;;5.20;;
2408;SDS011;8463;48.094;7.970;2022-12-07T17:54:20;5.80;;;5.30;;
2408;SDS011;8463;48.094;7.970;2022-12-07T17:56:46;6.07;;;4.70;;
2408;SDS011;8463;48.094;7.970;2022-12-07T17:59:12;5.87;;;5.27;;
2408;SDS011;8463;48.094;7.970;2022-12-07T18:01:38;6.07;;;5.47;;
2408;SDS011;8463;48.094;7.970;2022-12-07T18:04:04;7.20;;;4.87;;
2408;SDS011;8463;48.094;7.970;2022-12-07T18:06:29;12.90;;;7.87;;
2408;SDS011;8463;48.094;7.970;2022-12-07T18:08:57;11.20;;;9.30;;
2408;SDS011;8463;48.094;7.970;2022-12-07T18:11:23;11.53;;;9.13;;